createdAt,value
2017-09-20T00:01:45.919Z,63.58
2017-09-20T00:04:13.508Z,60.25
2017-09-20T00:06:40.609Z,51.95
2017-09-20T00:09:07.721Z,51.67
2017-09-20T00:14:05.980Z,53.38
2017-09-20T00:16:34.691Z,55.40
2017-09-20T00:19:01.996Z,52.28
2017-09-20T00:21:29.645Z,50.67
2017-09-20T00:23:56.870Z,52.53
2017-09-20T00:26:23.985Z,54.60
2017-09-20T00:28:51.632Z,53.40
2017-09-20T00:31:20.239Z,55.28
2017-09-20T00:33:47.799Z,51.88
2017-09-20T00:36:14.917Z,56.42
2017-09-20T00:38:41.973Z,48.50
2017-09-20T00:41:09.053Z,60.05
2017-09-20T00:43:39.510Z,64.62
2017-09-20T00:46:06.717Z,59.90
2017-09-20T00:48:34.291Z,63.33
2017-09-20T00:51:02.777Z,57.22
2017-09-20T00:53:29.971Z,62.03
2017-09-20T00:55:57.664Z,62.30
2017-09-20T00:58:24.893Z,65.32
2017-09-20T01:03:23.172Z,60.63
2017-09-20T01:05:50.376Z,60.50
2017-09-20T01:08:17.643Z,57.97
2017-09-20T01:10:49.044Z,65.15
2017-09-20T01:13:19.781Z,60.42
2017-09-20T01:15:46.942Z,69.03
2017-09-20T01:18:14.092Z,65.62
2017-09-20T01:20:46.980Z,70.22
2017-09-20T01:23:20.010Z,60.58
2017-09-20T01:25:46.924Z,59.75
2017-09-20T01:28:14.587Z,71.78
2017-09-20T01:30:41.835Z,58.38
2017-09-20T01:33:11.009Z,65.28
2017-09-20T01:35:38.223Z,61.85
2017-09-20T01:38:05.844Z,66.32
2017-09-20T01:40:32.903Z,65.32
2017-09-20T01:45:34.499Z,62.58
2017-09-20T01:48:02.749Z,60.88
2017-09-20T01:50:30.487Z,67.80
2017-09-20T01:52:57.680Z,70.25
2017-09-20T01:55:24.816Z,61.17
2017-09-20T01:57:52.435Z,66.45
2017-09-20T02:00:19.578Z,58.95
2017-09-20T02:02:46.879Z,57.35
2017-09-20T02:05:16.117Z,62.58
2017-09-20T02:07:43.096Z,63.30
2017-09-20T02:10:11.609Z,65.90
2017-09-20T02:15:11.199Z,64.55
2017-09-20T02:17:38.740Z,65.55
2017-09-20T02:20:05.851Z,73.78
2017-09-20T02:22:34.335Z,62.85
2017-09-20T02:27:32.431Z,66.75
2017-09-20T02:30:00.940Z,68.35
2017-09-20T02:34:59.577Z,60.67
2017-09-20T02:37:27.283Z,67.25
2017-09-20T02:39:57.829Z,59.22
2017-09-20T02:42:25.527Z,84.32
2017-09-20T02:47:25.032Z,53.40
2017-09-20T02:49:53.506Z,60.35
2017-09-20T02:52:24.066Z,62.65
2017-09-20T02:57:22.225Z,72.30
2017-09-20T02:59:49.963Z,63.17
2017-09-20T03:02:17.248Z,62.50
2017-09-20T03:04:44.500Z,63.47
2017-09-20T03:07:11.563Z,66.18
2017-09-20T03:09:39.716Z,61.60
2017-09-20T03:12:07.430Z,56.67
2017-09-20T03:14:34.573Z,57.35
2017-09-20T03:17:01.705Z,60.80
2017-09-20T03:19:29.735Z,56.25
2017-09-20T03:21:57.409Z,68.07
2017-09-20T03:24:25.080Z,62.62
2017-09-20T03:26:53.263Z,59.65
2017-09-20T03:31:52.137Z,65.65
2017-09-20T03:34:19.374Z,68.05
2017-09-20T03:36:46.456Z,69.00
2017-09-20T03:39:13.519Z,57.70
2017-09-20T03:41:42.084Z,74.78
2017-09-20T03:44:09.335Z,53.85
2017-09-20T03:46:36.629Z,62.47
2017-09-20T03:49:03.736Z,59.15
2017-09-20T03:54:02.309Z,65.05
2017-09-20T03:56:29.856Z,57.83
2017-09-20T03:58:56.994Z,59.33
2017-09-20T04:01:24.110Z,56.47
2017-09-20T04:03:52.783Z,59.55
2017-09-20T04:06:21.256Z,55.33
2017-09-20T04:08:48.449Z,50.70
2017-09-20T04:11:17.151Z,55.55
2017-09-20T04:13:44.701Z,63.95
2017-09-20T04:21:13.643Z,61.17
2017-09-20T04:23:40.807Z,52.55
2017-09-20T04:26:09.375Z,57.60
2017-09-20T04:28:36.477Z,54.33
2017-09-20T04:31:04.108Z,49.65
2017-09-20T04:33:32.396Z,57.15
2017-09-20T04:35:59.943Z,61.80
2017-09-20T04:38:27.075Z,48.67
2017-09-20T04:40:54.214Z,51.25
2017-09-20T04:43:22.094Z,48.92
2017-09-20T04:45:49.917Z,51.00
2017-09-20T04:48:17.989Z,49.10
2017-09-20T04:50:45.341Z,47.53
2017-09-20T04:53:12.975Z,48.45
2017-09-20T04:55:40.051Z,47.78
2017-09-20T04:58:07.745Z,44.05
2017-09-20T05:00:34.935Z,47.40
2017-09-20T05:03:02.604Z,44.00
2017-09-20T05:05:29.944Z,48.67
2017-09-20T05:07:57.058Z,46.08
2017-09-20T05:10:24.640Z,45.17
2017-09-20T05:12:51.783Z,45.10
2017-09-20T05:15:18.909Z,57.15
2017-09-20T05:17:45.944Z,47.20
2017-09-20T05:20:13.095Z,48.33
2017-09-20T05:22:40.260Z,41.50
2017-09-20T05:25:07.325Z,52.75
2017-09-20T05:27:34.360Z,45.47
2017-09-20T05:30:01.488Z,52.03
2017-09-20T05:32:30.345Z,45.90
2017-09-20T05:34:57.276Z,48.13
2017-09-20T05:37:24.376Z,44.85
2017-09-20T05:39:51.717Z,43.42
2017-09-20T05:42:18.903Z,43.63
2017-09-20T05:44:46.460Z,46.47
2017-09-20T05:47:14.147Z,43.92
2017-09-20T05:49:41.281Z,47.40
2017-09-20T05:52:10.089Z,45.40
2017-09-20T05:54:37.097Z,49.15
2017-09-20T05:57:04.671Z,42.45
2017-09-20T05:59:31.453Z,39.85
2017-09-20T06:01:58.629Z,45.78
2017-09-20T06:04:25.648Z,42.83
2017-09-20T06:06:52.675Z,44.17
2017-09-20T06:09:19.452Z,44.38
2017-09-20T06:11:46.929Z,43.08
2017-09-20T06:14:14.421Z,44.22
2017-09-20T06:16:41.989Z,51.22
2017-09-20T06:19:09.002Z,45.30
2017-09-20T06:21:35.763Z,43.53
2017-09-20T06:24:02.753Z,48.65
2017-09-20T06:26:29.886Z,42.92
2017-09-20T06:28:56.927Z,42.58
2017-09-20T06:31:24.107Z,45.90
2017-09-20T06:33:50.871Z,43.45
2017-09-20T06:36:17.943Z,39.33
2017-09-20T06:38:44.706Z,41.47
2017-09-20T06:41:11.792Z,39.03
2017-09-20T06:43:38.565Z,46.30
2017-09-20T06:46:05.343Z,47.62
2017-09-20T06:48:32.421Z,43.08
2017-09-20T06:50:59.204Z,43.97
2017-09-20T06:53:26.288Z,40.33
2017-09-20T06:55:53.072Z,39.83
2017-09-20T06:58:20.053Z,43.60
2017-09-20T07:00:47.064Z,44.30
2017-09-20T07:03:13.841Z,42.85
2017-09-20T07:05:40.617Z,44.63
2017-09-20T07:08:07.605Z,43.65
2017-09-20T07:10:34.759Z,42.25
2017-09-20T07:13:01.932Z,44.42
2017-09-20T07:15:28.940Z,46.33
2017-09-20T07:17:56.057Z,42.90
2017-09-20T07:20:23.110Z,39.15
2017-09-20T07:22:50.103Z,40.60
2017-09-20T07:25:17.273Z,37.60
2017-09-20T07:27:44.027Z,40.53
2017-09-20T07:30:10.809Z,43.15
2017-09-20T07:32:37.886Z,37.17
2017-09-20T07:35:04.892Z,34.65
2017-09-20T07:37:31.661Z,37.78
2017-09-20T07:39:58.653Z,37.33
2017-09-20T07:42:25.439Z,25.20
2017-09-20T07:44:52.441Z,28.87
2017-09-20T07:47:19.345Z,34.28
2017-09-20T07:49:46.336Z,32.53
2017-09-20T07:52:13.107Z,31.55
2017-09-20T07:54:40.198Z,26.85
2017-09-20T07:57:08.119Z,30.08
2017-09-20T07:59:35.132Z,29.37
2017-09-20T08:02:01.913Z,31.20
2017-09-20T08:04:29.031Z,29.87
2017-09-20T08:06:55.829Z,30.45
2017-09-20T08:09:22.602Z,27.58
2017-09-20T08:11:49.661Z,29.63
2017-09-20T08:14:16.426Z,27.58
2017-09-20T08:16:43.208Z,26.80
2017-09-20T08:19:09.975Z,28.42
2017-09-20T08:21:36.748Z,27.08
2017-09-20T08:24:03.896Z,29.12
2017-09-20T08:26:30.925Z,25.90
2017-09-20T08:28:57.901Z,27.90
2017-09-20T08:31:24.684Z,28.83
2017-09-20T08:33:51.784Z,28.35
2017-09-20T08:36:19.272Z,27.35
2017-09-20T08:38:46.420Z,26.48
2017-09-20T08:41:13.197Z,22.92
2017-09-20T08:43:40.245Z,26.45
2017-09-20T08:46:07.024Z,27.95
2017-09-20T08:48:33.768Z,25.20
2017-09-20T08:51:00.544Z,25.67
2017-09-20T08:53:27.284Z,27.17
2017-09-20T08:55:54.308Z,27.85
2017-09-20T08:58:21.072Z,22.00
2017-09-20T09:00:48.053Z,25.10
2017-09-20T09:03:15.230Z,25.70
2017-09-20T09:05:42.320Z,26.90
2017-09-20T09:08:09.435Z,25.10
2017-09-20T09:10:36.585Z,25.10
2017-09-20T09:13:04.772Z,25.92
2017-09-20T09:15:31.522Z,31.67
2017-09-20T09:17:58.306Z,21.58
2017-09-20T09:20:25.347Z,28.65
2017-09-20T09:22:52.490Z,25.40
2017-09-20T09:25:19.477Z,25.60
2017-09-20T09:27:46.612Z,31.02
2017-09-20T09:30:13.703Z,24.90
2017-09-20T09:32:40.501Z,28.05
2017-09-20T09:35:07.632Z,28.65
2017-09-20T09:37:34.720Z,29.20
2017-09-20T09:40:01.847Z,27.80
2017-09-20T09:42:29.477Z,24.75
2017-09-20T09:45:00.165Z,29.52
2017-09-20T09:47:28.478Z,29.27
2017-09-20T09:49:56.123Z,31.27
2017-09-20T09:52:24.804Z,30.37
2017-09-20T09:54:53.250Z,29.15
2017-09-20T10:05:05.125Z,25.95
2017-09-20T10:07:31.935Z,30.62
2017-09-20T10:12:34.300Z,26.35
2017-09-20T10:15:02.136Z,27.70
2017-09-20T10:17:31.750Z,29.00
2017-09-20T10:33:06.071Z,22.62
2017-09-20T10:35:57.911Z,23.42
2017-09-20T10:43:50.224Z,20.92
2017-09-20T10:48:58.479Z,18.58
2017-09-20T10:54:00.905Z,17.45
2017-09-20T10:56:32.334Z,19.00
2017-09-20T10:58:59.457Z,22.60
2017-09-20T11:01:28.046Z,17.95
2017-09-20T11:03:58.916Z,17.08
2017-09-20T11:06:26.747Z,26.65
2017-09-20T11:08:54.391Z,18.40
2017-09-20T11:11:22.325Z,19.33
2017-09-20T11:13:49.152Z,20.37
2017-09-20T11:16:17.634Z,21.17
2017-09-20T11:18:44.852Z,20.92
2017-09-20T11:23:44.964Z,24.10
2017-09-20T11:26:12.068Z,21.02
2017-09-20T11:28:39.147Z,21.92
2017-09-20T11:31:06.708Z,23.83
2017-09-20T11:33:33.968Z,24.40
2017-09-20T11:36:02.682Z,22.50
2017-09-20T11:38:30.272Z,23.55
2017-09-20T11:40:58.890Z,22.87
2017-09-20T11:45:57.552Z,21.50
2017-09-20T11:48:24.621Z,23.05
2017-09-20T11:54:08.670Z,24.17
2017-09-20T11:56:36.584Z,27.77
2017-09-20T11:59:03.684Z,24.12
2017-09-20T12:01:30.699Z,21.17
2017-09-20T12:03:58.154Z,21.67
2017-09-20T12:11:27.515Z,21.23
2017-09-20T12:13:55.226Z,21.05
2017-09-20T12:16:22.805Z,20.33
2017-09-20T12:18:49.744Z,20.70
2017-09-20T12:21:17.722Z,20.17
2017-09-20T12:23:44.794Z,18.83
2017-09-20T12:26:11.894Z,21.65
2017-09-20T12:28:39.176Z,22.75
2017-09-20T12:31:05.985Z,20.23
2017-09-20T12:33:33.200Z,22.65
2017-09-20T12:36:00.502Z,21.67
2017-09-20T12:38:27.503Z,20.58
2017-09-20T12:40:54.532Z,22.37
2017-09-20T12:43:21.708Z,19.50
2017-09-20T12:45:48.522Z,18.87
2017-09-20T12:48:15.320Z,20.45
2017-09-20T12:50:42.528Z,18.58
2017-09-20T12:53:09.301Z,22.92
2017-09-20T12:55:36.518Z,23.15
2017-09-20T12:58:03.531Z,20.75
2017-09-20T13:00:30.300Z,18.83
2017-09-20T13:02:57.867Z,18.70
2017-09-20T13:05:24.936Z,19.48
2017-09-20T13:07:51.707Z,18.83
2017-09-20T13:10:18.758Z,17.48
2017-09-20T13:12:45.534Z,15.70
2017-09-20T13:15:12.642Z,18.05
2017-09-20T13:17:39.396Z,19.05
2017-09-20T13:20:06.871Z,19.10
2017-09-20T13:22:33.625Z,20.35
2017-09-20T13:25:00.650Z,17.73
2017-09-20T13:27:27.409Z,16.85
2017-09-20T13:29:54.182Z,17.62
2017-09-20T13:32:21.766Z,20.02
2017-09-20T13:34:48.936Z,17.95
2017-09-20T13:37:15.692Z,17.70
2017-09-20T13:39:42.868Z,16.70
2017-09-20T13:42:09.866Z,16.70
2017-09-20T13:44:36.648Z,17.05
2017-09-20T13:47:03.637Z,13.98
2017-09-20T13:49:30.617Z,14.87
2017-09-20T13:51:57.404Z,13.18
2017-09-20T13:54:24.168Z,14.23
2017-09-20T13:56:51.237Z,12.88
2017-09-20T13:59:18.003Z,14.48
2017-09-20T14:01:44.788Z,13.05
2017-09-20T14:04:11.923Z,14.50
2017-09-20T14:06:38.936Z,14.60
2017-09-20T14:09:05.682Z,13.05
2017-09-20T14:11:33.447Z,16.10
2017-09-20T14:14:00.197Z,14.80
2017-09-20T14:16:27.363Z,15.27
2017-09-20T14:18:54.517Z,13.57
2017-09-20T14:21:21.527Z,13.05
2017-09-20T14:23:48.299Z,13.05
2017-09-20T14:26:15.386Z,11.20
2017-09-20T14:28:42.128Z,11.18
2017-09-20T14:31:08.909Z,11.38
2017-09-20T14:33:35.660Z,13.85
2017-09-20T14:36:02.842Z,12.90
2017-09-20T14:38:29.955Z,17.10
2017-09-20T14:40:56.769Z,16.23
2017-09-20T14:43:23.857Z,14.00
2017-09-20T14:45:50.642Z,10.95
2017-09-20T14:48:17.778Z,12.18
2017-09-20T14:50:44.553Z,11.35
2017-09-20T14:53:11.304Z,12.00
2017-09-20T14:55:38.453Z,11.05
2017-09-20T14:58:05.441Z,10.75
2017-09-20T15:00:32.565Z,14.50
2017-09-20T15:02:59.650Z,15.20
2017-09-20T15:05:26.411Z,18.40
2017-09-20T15:07:53.179Z,16.48
2017-09-20T15:10:19.944Z,18.37
2017-09-20T15:12:47.421Z,18.33
2017-09-20T15:15:14.895Z,16.77
2017-09-20T15:17:41.677Z,19.40
2017-09-20T15:20:08.827Z,16.73
2017-09-20T15:22:35.849Z,18.48
2017-09-20T15:25:02.878Z,18.27
2017-09-20T15:27:29.900Z,18.85
2017-09-20T15:29:56.928Z,16.95
2017-09-20T15:32:24.066Z,16.12
2017-09-20T15:34:51.056Z,16.45
2017-09-20T15:37:18.104Z,18.12
2017-09-20T15:39:45.243Z,19.30
2017-09-20T15:42:12.015Z,17.98
2017-09-20T15:44:39.006Z,17.60
2017-09-20T15:47:06.123Z,17.30
2017-09-20T15:49:33.104Z,18.52
2017-09-20T15:52:00.236Z,18.87
2017-09-20T15:54:27.260Z,21.33
2017-09-20T15:56:54.273Z,19.27
2017-09-20T15:59:21.738Z,19.17
2017-09-20T16:01:49.240Z,17.58
2017-09-20T16:04:16.371Z,16.90
2017-09-20T16:06:43.153Z,18.70
2017-09-20T16:09:10.239Z,21.10
2017-09-20T16:11:37.027Z,17.83
2017-09-20T16:14:04.116Z,18.87
2017-09-20T16:16:31.116Z,17.33
2017-09-20T16:18:58.697Z,20.55
2017-09-20T16:21:25.821Z,18.95
2017-09-20T16:23:52.853Z,21.75
2017-09-20T16:26:19.968Z,22.85
2017-09-20T16:28:47.533Z,21.55
2017-09-20T16:31:14.608Z,19.05
2017-09-20T16:36:13.702Z,20.55
2017-09-20T16:38:41.204Z,20.67
2017-09-20T16:41:08.684Z,23.45
2017-09-20T16:43:35.472Z,22.58
2017-09-20T16:46:02.550Z,21.27
2017-09-20T16:48:29.728Z,22.25
2017-09-20T16:50:56.724Z,23.17
2017-09-20T16:53:23.805Z,21.65
2017-09-20T16:55:50.566Z,23.58
2017-09-20T16:58:17.616Z,22.08
2017-09-20T17:00:44.717Z,23.40
2017-09-20T17:03:11.514Z,23.73
2017-09-20T17:05:38.505Z,22.42
2017-09-20T17:08:05.611Z,23.77
2017-09-20T17:10:32.684Z,22.77
2017-09-20T17:12:59.860Z,22.90
2017-09-20T17:15:26.933Z,21.80
2017-09-20T17:17:54.068Z,23.12
2017-09-20T17:20:21.146Z,22.00
2017-09-20T17:22:48.158Z,22.50
2017-09-20T17:25:15.287Z,22.73
2017-09-20T17:27:42.401Z,25.20
2017-09-20T17:30:09.395Z,23.77
2017-09-20T17:32:36.401Z,22.70
2017-09-20T17:35:03.169Z,25.62
2017-09-20T17:37:30.212Z,25.80
2017-09-20T17:39:57.194Z,22.40
2017-09-20T17:42:24.331Z,25.52
2017-09-20T17:44:51.330Z,26.45
2017-09-20T17:47:18.424Z,26.10
2017-09-20T17:49:45.543Z,24.85
2017-09-20T17:52:12.694Z,25.48
2017-09-20T17:54:39.772Z,24.48
2017-09-20T17:57:06.923Z,27.08
2017-09-20T17:59:34.417Z,25.27
2017-09-20T18:02:01.553Z,26.52
2017-09-20T18:04:28.703Z,26.62
2017-09-20T18:06:55.807Z,25.73
2017-09-20T18:09:22.960Z,26.37
2017-09-20T18:11:50.111Z,24.00
2017-09-20T18:14:17.118Z,23.45
2017-09-20T18:16:44.182Z,27.02
2017-09-20T18:19:11.203Z,27.48
2017-09-20T18:21:38.220Z,29.30
2017-09-20T18:24:05.414Z,26.95
2017-09-20T18:26:32.424Z,27.98
2017-09-20T18:28:59.579Z,29.27
2017-09-20T18:31:26.560Z,29.25
2017-09-20T18:33:53.575Z,38.17
2017-09-20T18:36:20.621Z,33.83
2017-09-20T18:38:47.768Z,34.17
2017-09-20T18:41:14.757Z,29.70
2017-09-20T18:43:41.813Z,30.58
2017-09-20T18:46:08.932Z,31.35
2017-09-20T18:48:36.005Z,33.65
2017-09-20T18:51:03.118Z,28.83
2017-09-20T18:53:30.260Z,33.83
2017-09-20T18:55:57.382Z,29.08
2017-09-20T18:58:24.536Z,28.35
2017-09-20T19:00:51.621Z,28.70
2017-09-20T19:03:19.566Z,24.85
2017-09-20T19:05:46.655Z,29.33
2017-09-20T19:08:13.656Z,30.40
2017-09-20T19:10:40.804Z,26.00
2017-09-20T19:13:07.797Z,27.70
2017-09-20T19:15:34.959Z,31.77
2017-09-20T19:18:01.955Z,32.75
2017-09-20T19:20:29.128Z,27.58
2017-09-20T19:22:56.213Z,33.38
2017-09-20T19:25:23.780Z,32.45
2017-09-20T19:27:50.769Z,29.08
2017-09-20T19:30:17.869Z,32.20
2017-09-20T19:32:45.334Z,30.35
2017-09-20T19:35:12.429Z,35.03
2017-09-20T19:37:39.886Z,32.58
2017-09-20T19:40:07.386Z,33.40
2017-09-20T19:42:34.157Z,34.88
2017-09-20T19:45:00.948Z,38.92
2017-09-20T19:47:28.599Z,37.05
2017-09-20T19:49:55.712Z,34.08
2017-09-20T19:52:22.861Z,33.88
2017-09-20T19:54:49.881Z,34.65
2017-09-20T19:57:16.919Z,38.42
2017-09-20T19:59:44.004Z,33.88
2017-09-20T20:02:10.998Z,38.10
2017-09-20T20:04:37.996Z,35.70
2017-09-20T20:07:04.996Z,38.08
2017-09-20T20:09:32.112Z,35.53
2017-09-20T20:11:59.108Z,32.58
2017-09-20T20:14:26.121Z,31.48
2017-09-20T20:16:53.116Z,33.85
2017-09-20T20:19:20.184Z,35.35
2017-09-20T20:21:47.176Z,35.90
2017-09-20T20:24:14.287Z,36.42
2017-09-20T20:26:41.399Z,37.58
2017-09-20T20:29:08.390Z,37.00
2017-09-20T20:31:35.444Z,40.90
2017-09-20T20:34:02.910Z,34.03
2017-09-20T20:36:30.404Z,39.22
2017-09-20T20:38:57.873Z,36.45
2017-09-20T20:41:25.365Z,44.50
2017-09-20T20:43:52.457Z,38.55
2017-09-20T20:46:19.245Z,36.78
2017-09-20T20:48:46.395Z,44.85
2017-09-20T20:51:13.627Z,35.95
2017-09-20T20:53:40.751Z,40.78
2017-09-20T20:56:08.324Z,39.97
2017-09-20T20:58:35.355Z,42.40
2017-09-20T21:01:03.053Z,43.33
2017-09-20T21:03:36.267Z,44.60
2017-09-20T21:06:10.447Z,50.75
2017-09-20T21:08:37.704Z,40.65
2017-09-20T21:16:13.088Z,43.35
2017-09-20T21:21:12.756Z,45.80
2017-09-20T21:23:42.621Z,44.90
2017-09-20T21:28:40.930Z,43.25
2017-09-20T21:33:45.432Z,51.22
2017-09-20T21:41:53.508Z,46.72
2017-09-20T21:46:59.189Z,43.85
2017-09-20T21:49:28.802Z,46.70
2017-09-20T22:11:31.300Z,50.47
2017-09-20T22:16:40.166Z,49.05
2017-09-20T22:19:13.991Z,43.10
2017-09-20T22:21:47.020Z,47.22
2017-09-20T22:24:22.505Z,46.35
2017-09-20T22:29:31.676Z,45.33
2017-09-20T22:42:50.711Z,39.33
2017-09-20T22:48:10.535Z,39.25
2017-09-20T22:50:40.321Z,37.80
2017-09-20T22:53:09.655Z,33.42
2017-09-20T23:00:52.232Z,40.72
2017-09-20T23:03:20.560Z,33.45
2017-09-20T23:08:28.642Z,41.92
2017-09-20T23:10:56.366Z,34.08
2017-09-20T23:13:24.839Z,30.67
2017-09-20T23:15:52.640Z,33.55
2017-09-20T23:18:19.801Z,31.48
2017-09-20T23:20:47.473Z,36.20
2017-09-20T23:23:15.578Z,40.67
2017-09-20T23:25:44.173Z,38.78
2017-09-20T23:28:11.279Z,32.45
2017-09-20T23:30:40.024Z,34.53
2017-09-20T23:33:07.261Z,31.37
2017-09-20T23:35:35.248Z,37.50
2017-09-20T23:38:02.425Z,37.38
2017-09-20T23:40:29.944Z,34.55
2017-09-20T23:42:57.052Z,37.03
2017-09-20T23:45:24.268Z,44.47
2017-09-20T23:47:51.831Z,35.47
2017-09-20T23:52:50.615Z,30.80
2017-09-20T23:55:17.819Z,34.38
2017-09-20T23:57:45.377Z,32.33
